createdAt,value
2023-03-26T00:01:16.659Z,92267.28
2023-03-26T00:03:45.091Z,92270.22
2023-03-26T00:06:14.296Z,92265.78
2023-03-26T00:08:41.958Z,92274.81
2023-03-26T00:11:10.845Z,92275.16
2023-03-26T00:13:37.696Z,92272.38
2023-03-26T00:16:04.561Z,92267.72
2023-03-26T00:18:31.492Z,92272.22
2023-03-26T00:20:58.660Z,92265.66
2023-03-26T00:23:27.044Z,92273.47
2023-03-26T00:25:54.578Z,92276.81
2023-03-26T00:28:22.338Z,92270.81
2023-03-26T00:31:01.473Z,92267.03
2023-03-26T00:33:28.350Z,92275.13
2023-03-26T00:35:58.712Z,92271.47
2023-03-26T00:38:26.640Z,92274.84
2023-03-26T00:40:54.322Z,92268.31
2023-03-26T00:43:22.727Z,92260.03
2023-03-26T00:45:51.846Z,92261.06
2023-03-26T00:48:18.817Z,92264.63
2023-03-26T00:50:46.843Z,92262.97
2023-03-26T00:53:14.590Z,92260.91
2023-03-26T00:55:41.757Z,92259.22
2023-03-26T00:58:10.281Z,92254.25
2023-03-26T01:00:42.466Z,92250.31
2023-03-26T01:03:21.900Z,92255.75
2023-03-26T01:06:04.921Z,92252.63
2023-03-26T01:08:42.789Z,92236.69
2023-03-26T01:11:16.848Z,92241.88
2023-03-26T01:13:52.782Z,92248.84
2023-03-26T01:16:26.644Z,92232.94
2023-03-26T01:18:54.224Z,92237.81
2023-03-26T01:21:28.646Z,92242.31
2023-03-26T01:24:13.742Z,92236.06
2023-03-26T01:26:52.742Z,92222.25
2023-03-26T01:29:33.376Z,92217.22
2023-03-26T01:32:37.874Z,92222.19
2023-03-26T01:35:14.229Z,92217.78
2023-03-26T01:37:52.844Z,92210.38
2023-03-26T01:40:42.988Z,92207.22
2023-03-26T01:43:12.491Z,92192.03
2023-03-26T01:45:42.333Z,92182.66
2023-03-26T01:48:08.877Z,92175.06
2023-03-26T01:50:35.320Z,92170.63
2023-03-26T01:53:01.817Z,92158.06
2023-03-26T01:55:56.052Z,92156.00
2023-03-26T01:58:38.009Z,92146.25
2023-03-26T02:01:46.209Z,92132.69
2023-03-26T02:04:54.551Z,92135.53
2023-03-26T02:07:37.893Z,92125.31
2023-03-26T02:10:33.808Z,92106.84
2023-03-26T02:13:00.718Z,92115.81
2023-03-26T02:15:27.509Z,92110.31
2023-03-26T02:17:54.322Z,92110.06
2023-03-26T02:20:21.259Z,92104.00
2023-03-26T02:22:47.737Z,92102.13
2023-03-26T02:25:19.967Z,92091.19
2023-03-26T02:27:49.729Z,92085.56
2023-03-26T02:30:21.535Z,92079.41
2023-03-26T02:32:52.168Z,92073.41
2023-03-26T02:35:21.477Z,92070.56
2023-03-26T02:37:51.185Z,92066.63
2023-03-26T02:40:22.259Z,92060.66
2023-03-26T02:42:49.851Z,92061.41
2023-03-26T02:45:17.264Z,92057.28
2023-03-26T02:48:16.107Z,92062.00
2023-03-26T02:50:50.092Z,92057.91
2023-03-26T02:53:41.226Z,92060.69
2023-03-26T02:56:26.080Z,92053.06
2023-03-26T02:59:11.251Z,92049.75
2023-03-26T03:01:43.070Z,92058.59
2023-03-26T03:04:12.439Z,92057.25
2023-03-26T03:06:40.420Z,92042.13
2023-03-26T03:09:10.853Z,92045.50
2023-03-26T03:11:39.125Z,92037.16
2023-03-26T03:14:05.760Z,92028.81
2023-03-26T03:16:33.697Z,92031.94
2023-03-26T03:19:06.144Z,92010.38
2023-03-26T03:21:42.369Z,92008.00
2023-03-26T03:24:11.639Z,92002.78
2023-03-26T03:26:42.342Z,92002.06
2023-03-26T03:29:20.685Z,92002.38
2023-03-26T03:31:47.616Z,92006.56
2023-03-26T03:34:33.048Z,91999.78
2023-03-26T03:36:59.533Z,91994.81
2023-03-26T03:39:35.045Z,91984.16
2023-03-26T03:42:01.895Z,91968.00
2023-03-26T03:44:28.702Z,91973.50
2023-03-26T03:46:56.909Z,91972.25
2023-03-26T03:49:23.698Z,91969.63
2023-03-26T03:51:50.724Z,91962.38
2023-03-26T03:54:33.206Z,91962.88
2023-03-26T03:57:26.452Z,91967.25
2023-03-26T03:59:59.511Z,91957.59
2023-03-26T04:02:34.729Z,91943.63
2023-03-26T04:05:06.034Z,91942.31
2023-03-26T04:07:32.994Z,91955.09
2023-03-26T04:10:07.390Z,91942.09
2023-03-26T04:12:56.557Z,91951.69
2023-03-26T04:15:48.274Z,91935.84
2023-03-26T04:18:15.053Z,91939.00
2023-03-26T04:20:46.329Z,91940.03
2023-03-26T04:23:18.842Z,91933.28
2023-03-26T04:25:53.866Z,91932.81
2023-03-26T04:28:56.604Z,91935.97
2023-03-26T04:31:30.499Z,91939.63
2023-03-26T04:34:07.795Z,91934.97
2023-03-26T04:36:42.385Z,91934.47
2023-03-26T04:39:11.505Z,91925.13
2023-03-26T04:42:03.788Z,91910.31
2023-03-26T04:44:42.326Z,91905.41
2023-03-26T04:47:11.390Z,91914.22
2023-03-26T04:49:46.116Z,91901.75
2023-03-26T04:52:15.355Z,91877.78
2023-03-26T04:55:47.084Z,91876.97
2023-03-26T04:58:30.021Z,91865.53
2023-03-26T05:01:01.271Z,91856.19
2023-03-26T05:03:42.613Z,91848.91
2023-03-26T05:06:13.690Z,91855.97
2023-03-26T05:08:41.738Z,91840.88
2023-03-26T05:11:12.261Z,91837.25
2023-03-26T05:13:39.053Z,91839.34
2023-03-26T05:16:11.176Z,91830.25
2023-03-26T05:18:40.802Z,91822.44
2023-03-26T05:21:08.362Z,91827.88
2023-03-26T05:23:35.377Z,91822.44
2023-03-26T05:26:11.059Z,91814.34
2023-03-26T05:28:37.969Z,91812.28
2023-03-26T05:31:39.622Z,91805.03
2023-03-26T05:34:06.703Z,91811.81
2023-03-26T05:36:33.380Z,91809.19
2023-03-26T05:39:25.565Z,91806.09
2023-03-26T05:42:12.054Z,91809.47
2023-03-26T05:44:59.037Z,91799.56
2023-03-26T05:47:28.417Z,91796.97
2023-03-26T05:49:55.787Z,91793.88
2023-03-26T05:52:22.520Z,91792.06
2023-03-26T05:55:27.681Z,91791.81
2023-03-26T05:58:13.539Z,91784.75
2023-03-26T06:01:05.888Z,91786.06
2023-03-26T06:03:52.643Z,91764.47
2023-03-26T06:06:20.806Z,91762.38
2023-03-26T06:09:02.246Z,91744.44
2023-03-26T06:11:32.946Z,91725.44
2023-03-26T06:14:01.143Z,91737.41
2023-03-26T06:16:28.376Z,91725.16
2023-03-26T06:19:27.108Z,91726.47
2023-03-26T06:22:00.888Z,91718.13
2023-03-26T06:24:37.150Z,91724.38
2023-03-26T06:27:35.187Z,91715.53
2023-03-26T06:30:21.906Z,91712.94
2023-03-26T06:33:14.592Z,91703.03
2023-03-26T06:35:46.802Z,91699.41
2023-03-26T06:38:15.284Z,91698.09
2023-03-26T06:40:41.910Z,91690.78
2023-03-26T06:43:26.297Z,91688.97
2023-03-26T06:45:55.568Z,91682.47
2023-03-26T06:48:37.712Z,91687.69
2023-03-26T06:51:22.887Z,91674.16
2023-03-26T06:54:07.684Z,91666.09
2023-03-26T06:56:57.061Z,91670.75
2023-03-26T06:59:55.522Z,91660.88
2023-03-26T07:02:40.372Z,91660.88
2023-03-26T07:05:25.341Z,91649.41
2023-03-26T07:08:10.778Z,91660.88
2023-03-26T07:10:56.195Z,91650.44
2023-03-26T07:13:43.190Z,91648.88
2023-03-26T07:16:28.648Z,91644.19
2023-03-26T07:19:17.263Z,91642.13
2023-03-26T07:21:44.497Z,91644.19
2023-03-26T07:24:36.836Z,91653.84
2023-03-26T07:27:42.470Z,91649.44
2023-03-26T07:30:37.569Z,91645.25
2023-03-26T07:33:41.941Z,91630.94
2023-03-26T07:36:30.693Z,91626.53
2023-03-26T07:39:40.948Z,91617.38
2023-03-26T07:42:38.925Z,91622.34
2023-03-26T07:45:39.700Z,91608.78
2023-03-26T07:48:29.769Z,91594.72
2023-03-26T07:51:25.781Z,91594.19
2023-03-26T07:54:00.933Z,91585.31
2023-03-26T07:57:12.934Z,91580.59
2023-03-26T07:59:58.267Z,91573.84
2023-03-26T08:02:54.266Z,91578.78
2023-03-26T08:05:50.386Z,91580.63
2023-03-26T08:08:56.636Z,91578.78
2023-03-26T08:11:58.603Z,91579.25
2023-03-26T08:14:51.630Z,91589.44
2023-03-26T08:17:24.524Z,91581.63
2023-03-26T08:20:02.071Z,91595.69
2023-03-26T08:22:36.612Z,91601.97
2023-03-26T08:25:23.268Z,91623.38
2023-03-26T08:28:19.451Z,91623.34
2023-03-26T08:30:46.979Z,91646.81
2023-03-26T08:33:16.711Z,91664.00
2023-03-26T08:35:44.088Z,91679.88
2023-03-26T08:38:15.842Z,91644.66
2023-03-26T08:41:01.153Z,91634.22
2023-03-26T08:43:30.969Z,91643.13
2023-03-26T08:46:09.490Z,91617.63
2023-03-26T08:49:13.245Z,91627.03
2023-03-26T08:51:45.814Z,91594.16
2023-03-26T08:54:57.536Z,91593.38
2023-03-26T08:57:37.552Z,91587.38
2023-03-26T09:00:19.184Z,91583.72
2023-03-26T09:03:13.072Z,91584.72
2023-03-26T09:06:10.161Z,91584.91
2023-03-26T09:08:56.923Z,91582.03
2023-03-26T09:11:41.864Z,91574.75
2023-03-26T09:14:11.297Z,91583.03
2023-03-26T09:17:00.856Z,91624.84
2023-03-26T09:19:37.422Z,91587.50
2023-03-26T09:22:30.358Z,91596.88
2023-03-26T09:25:35.148Z,91598.97
2023-03-26T09:28:14.151Z,91594.94
2023-03-26T09:30:59.171Z,91600.66
2023-03-26T09:33:53.749Z,91594.91
2023-03-26T09:36:43.036Z,91636.72
2023-03-26T09:39:17.313Z,91601.13
2023-03-26T09:42:07.976Z,91588.72
2023-03-26T09:44:56.448Z,91598.56
2023-03-26T09:47:45.650Z,91598.34
2023-03-26T09:50:34.201Z,91602.06
2023-03-26T09:53:19.607Z,91608.31
2023-03-26T09:56:17.117Z,91584.06
2023-03-26T09:58:57.898Z,91584.13
2023-03-26T10:01:46.713Z,91594.44
2023-03-26T10:04:38.512Z,91572.38
2023-03-26T10:07:26.277Z,91563.44
2023-03-26T10:10:18.371Z,91580.38
2023-03-26T10:13:11.638Z,91608.16
2023-03-26T10:15:59.557Z,91604.25
2023-03-26T10:19:04.337Z,91571.34
2023-03-26T10:21:43.266Z,91578.56
2023-03-26T10:24:18.676Z,91564.31
2023-03-26T10:27:08.319Z,91578.69
2023-03-26T10:29:52.104Z,91649.38
2023-03-26T10:32:37.818Z,91589.97
2023-03-26T10:35:41.965Z,91580.34
2023-03-26T10:38:30.033Z,91581.69
2023-03-26T10:41:05.873Z,91583.81
2023-03-26T10:43:36.349Z,91618.69
2023-03-26T10:46:31.631Z,91602.41
2023-03-26T10:49:27.392Z,91581.81
2023-03-26T10:51:59.572Z,91583.69
2023-03-26T10:54:31.231Z,91627.81
2023-03-26T10:56:58.319Z,91595.44
2023-03-26T10:59:27.517Z,91630.66
2023-03-26T11:02:39.632Z,91625.09
2023-03-26T11:05:24.711Z,91633.44
2023-03-26T11:08:14.479Z,91619.56
2023-03-26T11:11:09.522Z,91605.38
2023-03-26T11:13:44.435Z,91605.66
2023-03-26T11:16:18.955Z,91599.81
2023-03-26T11:18:51.092Z,91612.50
2023-03-26T11:21:27.854Z,91616.81
2023-03-26T11:24:11.733Z,91611.19
2023-03-26T11:27:24.968Z,91609.19
2023-03-26T11:30:21.292Z,91607.06
2023-03-26T11:32:52.726Z,91589.91
2023-03-26T11:35:40.513Z,91609.81
2023-03-26T11:38:20.681Z,91601.44
2023-03-26T11:40:51.218Z,91618.84
2023-03-26T11:43:37.091Z,91607.50
2023-03-26T11:46:09.469Z,91597.56
2023-03-26T11:48:46.618Z,91599.88
2023-03-26T11:51:22.848Z,91595.09
2023-03-26T11:53:49.387Z,91607.47
2023-03-26T11:56:32.132Z,91582.97
2023-03-26T11:59:21.861Z,91586.31
2023-03-26T12:01:58.450Z,91602.88
2023-03-26T12:04:41.077Z,91602.66
2023-03-26T12:07:31.712Z,91579.34
2023-03-26T12:10:18.535Z,91603.34
2023-03-26T12:12:47.607Z,91599.06
2023-03-26T12:15:16.099Z,91591.56
2023-03-26T12:17:43.156Z,91605.28
2023-03-26T12:20:24.901Z,91593.88
2023-03-26T12:22:53.601Z,91601.59
2023-03-26T12:25:21.589Z,91613.06
2023-03-26T12:27:49.474Z,91612.59
2023-03-26T12:30:25.481Z,91623.84
2023-03-26T12:32:56.756Z,91666.94
2023-03-26T12:35:29.271Z,91632.06
2023-03-26T12:38:30.154Z,91631.69
2023-03-26T12:43:40.325Z,91616.13
2023-03-26T12:44:52.813Z,91605.63
2023-03-26T12:47:58.376Z,91656.53
2023-03-26T12:50:14.336Z,91614.00
2023-03-26T12:52:59.398Z,91582.56
2023-03-26T12:56:10.140Z,91564.66
2023-03-26T12:58:55.256Z,91565.56
2023-03-26T13:01:47.135Z,91565.03
2023-03-26T13:04:34.410Z,91568.66
2023-03-26T13:07:15.224Z,91551.22
2023-03-26T13:09:52.902Z,91550.41
2023-03-26T13:12:41.046Z,91566.28
2023-03-26T13:15:26.768Z,91567.88
2023-03-26T13:18:21.919Z,91549.16
2023-03-26T13:21:04.756Z,91534.59
2023-03-26T13:23:52.413Z,91539.94
2023-03-26T13:26:45.457Z,91553.34
2023-03-26T13:29:42.854Z,91540.91
2023-03-26T13:32:37.100Z,91533.97
2023-03-26T13:35:16.877Z,91531.31
2023-03-26T13:37:53.633Z,91533.09
2023-03-26T13:40:24.811Z,91529.06
2023-03-26T13:43:06.578Z,91538.53
2023-03-26T13:45:38.890Z,91538.38
2023-03-26T13:48:10.225Z,91528.47
2023-03-26T13:50:40.820Z,91509.34
2023-03-26T13:53:19.473Z,91505.56
2023-03-26T13:55:51.908Z,91499.66
2023-03-26T13:58:34.382Z,91519.75
2023-03-26T14:01:33.609Z,91496.16
2023-03-26T14:04:00.173Z,91485.38
2023-03-26T14:06:54.044Z,91485.22
2023-03-26T14:09:34.409Z,91468.28
2023-03-26T14:12:26.440Z,91474.22
2023-03-26T14:15:02.682Z,91476.28
2023-03-26T14:17:44.870Z,91469.84
2023-03-26T14:20:17.353Z,91468.53
2023-03-26T14:23:25.703Z,91478.22
2023-03-26T14:26:25.217Z,91494.91
2023-03-26T14:28:54.755Z,91523.91
2023-03-26T14:31:38.965Z,91544.50
2023-03-26T14:34:33.147Z,91615.47
2023-03-26T14:37:46.372Z,91607.31
2023-03-26T14:40:29.758Z,91600.91
2023-03-26T14:43:19.491Z,91594.97
2023-03-26T14:46:07.470Z,91580.34
2023-03-26T14:48:52.209Z,91578.53
2023-03-26T14:51:55.235Z,91570.19
2023-03-26T14:54:28.399Z,91562.38
2023-03-26T14:57:17.376Z,91542.22
2023-03-26T15:00:06.600Z,91530.47
2023-03-26T15:02:57.869Z,91534.53
2023-03-26T15:05:54.654Z,91534.44
2023-03-26T15:08:58.608Z,91525.16
2023-03-26T15:11:34.295Z,91529.38
2023-03-26T15:14:38.431Z,91540.97
2023-03-26T15:17:35.638Z,91534.81
2023-03-26T15:20:33.428Z,91532.34
2023-03-26T15:23:08.924Z,91528.75
2023-03-26T15:25:54.061Z,91533.41
2023-03-26T15:28:33.517Z,91537.41
2023-03-26T15:31:26.201Z,91540.53
2023-03-26T15:34:14.439Z,91541.22
2023-03-26T15:37:12.599Z,91536.75
2023-03-26T15:39:58.720Z,91541.19
2023-03-26T15:42:38.247Z,91551.91
2023-03-26T15:45:20.100Z,91549.69
2023-03-26T15:48:09.556Z,91551.53
2023-03-26T15:50:56.261Z,91555.59
2023-03-26T15:53:47.869Z,91548.63
2023-03-26T15:56:26.409Z,91542.00
2023-03-26T15:59:06.114Z,91550.66
2023-03-26T16:01:47.569Z,91541.13
2023-03-26T16:04:29.187Z,91540.94
2023-03-26T16:07:03.458Z,91551.13
2023-03-26T16:09:55.640Z,91556.59
2023-03-26T16:12:34.683Z,91560.13
2023-03-26T16:15:25.081Z,91570.94
2023-03-26T16:18:10.332Z,91569.88
2023-03-26T16:21:32.137Z,91566.72
2023-03-26T16:24:02.327Z,91554.09
2023-03-26T16:26:31.571Z,91570.03
2023-03-26T16:29:15.727Z,91566.81
2023-03-26T16:31:57.789Z,91569.56
2023-03-26T16:34:38.803Z,91580.31
2023-03-26T16:37:26.300Z,91560.03
2023-03-26T16:39:53.081Z,91560.28
2023-03-26T16:42:28.008Z,91562.34
2023-03-26T16:45:17.843Z,91558.72
2023-03-26T16:48:05.798Z,91564.97
2023-03-26T16:50:46.164Z,91558.69
2023-03-26T16:53:48.647Z,91564.72
2023-03-26T16:56:36.483Z,91558.72
2023-03-26T16:59:31.717Z,91562.91
2023-03-26T17:02:16.164Z,91556.63
2023-03-26T17:04:48.497Z,91555.84
2023-03-26T17:07:39.567Z,91561.31
2023-03-26T17:10:30.782Z,91566.81
2023-03-26T17:13:07.900Z,91568.63
2023-03-26T17:15:45.055Z,91575.41
2023-03-26T17:18:30.073Z,91576.97
2023-03-26T17:21:46.236Z,91597.31
2023-03-26T17:24:39.002Z,91591.31
2023-03-26T17:27:49.919Z,91616.84
2023-03-26T17:30:30.523Z,91604.03
2023-03-26T17:33:03.516Z,91601.47
2023-03-26T17:35:39.847Z,91600.94
2023-03-26T17:38:18.284Z,91598.59
2023-03-26T17:41:04.009Z,91591.03
2023-03-26T17:43:44.803Z,91599.31
2023-03-26T17:46:39.158Z,91608.47
2023-03-26T17:49:11.772Z,91606.63
2023-03-26T17:52:15.586Z,91617.75
2023-03-26T17:54:46.420Z,91620.34
2023-03-26T17:57:41.840Z,91639.81
2023-03-26T18:00:16.671Z,91637.16
2023-03-26T18:02:50.485Z,91633.38
2023-03-26T18:05:17.500Z,91644.19
2023-03-26T18:08:12.559Z,91673.72
2023-03-26T18:11:12.774Z,91655.41
2023-03-26T18:14:20.928Z,91628.19
2023-03-26T18:16:53.887Z,91627.69
2023-03-26T18:19:22.777Z,91614.97
2023-03-26T18:21:52.144Z,91613.25
2023-03-26T18:24:40.270Z,91613.66
2023-03-26T18:27:16.759Z,91616.84
2023-03-26T18:29:46.034Z,91609.63
2023-03-26T18:32:12.465Z,91616.13
2023-03-26T18:34:49.392Z,91612.25
2023-03-26T18:37:23.755Z,91609.66
2023-03-26T18:39:56.685Z,91611.72
2023-03-26T18:42:25.750Z,91608.59
2023-03-26T18:44:53.484Z,91611.75
2023-03-26T18:47:23.808Z,91620.09
2023-03-26T18:49:56.582Z,91616.78
2023-03-26T18:52:23.251Z,91620.22
2023-03-26T18:54:53.256Z,91625.41
2023-03-26T18:57:26.325Z,91629.69
2023-03-26T18:59:54.942Z,91639.63
2023-03-26T19:02:22.143Z,91633.13
2023-03-26T19:04:50.860Z,91625.31
2023-03-26T19:07:23.716Z,91630.28
2023-03-26T19:09:54.678Z,91615.19
2023-03-26T19:12:27.252Z,91621.41
2023-03-26T19:15:15.636Z,91619.81
2023-03-26T19:17:46.987Z,91613.34
2023-03-26T19:20:19.381Z,91606.34
2023-03-26T19:22:47.528Z,91606.88
2023-03-26T19:25:22.081Z,91599.03
2023-03-26T19:27:50.665Z,91600.53
2023-03-26T19:30:33.863Z,91600.53
2023-03-26T19:33:13.241Z,91598.97
2023-03-26T19:35:42.123Z,91596.06
2023-03-26T19:38:22.538Z,91596.59
2023-03-26T19:40:51.814Z,91599.91
2023-03-26T19:43:18.874Z,91591.06
2023-03-26T19:45:59.749Z,91586.09
2023-03-26T19:48:45.774Z,91592.31
2023-03-26T19:51:20.431Z,91592.84
2023-03-26T19:53:52.914Z,91588.19
2023-03-26T19:56:21.222Z,91590.47
2023-03-26T19:58:49.988Z,91595.16
2023-03-26T20:01:19.634Z,91597.50
2023-03-26T20:03:48.694Z,91592.84
2023-03-26T20:06:18.080Z,91595.75
2023-03-26T20:08:45.184Z,91592.34
2023-03-26T20:11:23.476Z,91596.50
2023-03-26T20:13:50.872Z,91594.19
2023-03-26T20:16:26.505Z,91599.19
2023-03-26T20:18:57.116Z,91595.28
2023-03-26T20:21:25.355Z,91601.56
2023-03-26T20:23:55.199Z,91594.28
2023-03-26T20:26:23.242Z,91595.84
2023-03-26T20:31:25.153Z,91597.72
2023-03-26T20:33:53.211Z,91598.50
2023-03-26T20:36:33.329Z,91596.41
2023-03-26T20:39:01.497Z,91597.75
2023-03-26T20:41:28.965Z,91589.69
2023-03-26T20:43:55.611Z,91580.84
2023-03-26T20:46:23.946Z,91586.59
2023-03-26T20:48:57.994Z,91601.41
2023-03-26T20:51:24.582Z,91601.41
2023-03-26T20:53:51.045Z,91610.75
2023-03-26T20:56:19.314Z,91609.50
2023-03-26T20:59:03.647Z,91613.19
2023-03-26T21:01:34.827Z,91613.44
2023-03-26T21:04:04.104Z,91615.53
2023-03-26T21:06:30.559Z,91609.28
2023-03-26T21:08:57.292Z,91612.69
2023-03-26T21:11:40.881Z,91608.25
2023-03-26T21:14:16.093Z,91610.31
2023-03-26T21:16:42.880Z,91609.03
2023-03-26T21:19:10.367Z,91619.13
2023-03-26T21:21:50.772Z,91612.91
2023-03-26T21:24:30.233Z,91613.19
2023-03-26T21:27:04.033Z,91616.28
2023-03-26T21:29:30.928Z,91617.88
2023-03-26T21:31:57.728Z,91617.88
2023-03-26T21:34:24.472Z,91602.22
2023-03-26T21:36:51.764Z,91610.50
2023-03-26T21:39:18.423Z,91615.19
2023-03-26T21:41:48.374Z,91612.81
2023-03-26T21:44:32.407Z,91618.66
2023-03-26T21:46:59.189Z,91601.56
2023-03-26T21:49:26.045Z,91612.19
2023-03-26T21:51:52.782Z,91600.72
2023-03-26T21:54:31.168Z,91605.63
2023-03-26T21:57:19.809Z,91607.41
2023-03-26T21:59:54.345Z,91597.75
2023-03-26T22:02:39.353Z,91598.53
2023-03-26T22:05:12.886Z,91615.91
2023-03-26T22:07:54.364Z,91606.56
2023-03-26T22:10:21.053Z,91600.81
2023-03-26T22:12:47.929Z,91602.38
2023-03-26T22:15:14.825Z,91591.25
2023-03-26T22:17:42.147Z,91600.09
2023-03-26T22:20:14.098Z,91600.28
2023-03-26T22:22:46.100Z,91611.25
2023-03-26T22:25:12.907Z,91619.78
2023-03-26T22:27:44.549Z,91603.59
2023-03-26T22:30:12.846Z,91606.00
2023-03-26T22:32:39.856Z,91602.31
2023-03-26T22:35:07.077Z,91622.84
2023-03-26T22:37:34.432Z,91612.13
2023-03-26T22:40:01.224Z,91613.91
2023-03-26T22:42:27.948Z,91613.69
2023-03-26T22:44:54.377Z,91621.78
2023-03-26T22:47:21.835Z,91622.56
2023-03-26T22:49:48.268Z,91624.63
2023-03-26T22:52:14.710Z,91636.91
2023-03-26T22:54:41.506Z,91627.31
2023-03-26T22:57:08.026Z,91628.91
2023-03-26T22:59:34.572Z,91626.06
2023-03-26T23:02:01.223Z,91626.56
2023-03-26T23:04:31.150Z,91632.28
2023-03-26T23:06:58.679Z,91639.00
2023-03-26T23:09:25.209Z,91647.13
2023-03-26T23:11:51.888Z,91647.88
2023-03-26T23:14:19.002Z,91649.41
2023-03-26T23:16:48.370Z,91655.63
2023-03-26T23:19:14.789Z,91662.09
2023-03-26T23:21:41.284Z,91665.19
2023-03-26T23:24:08.121Z,91668.31
2023-03-26T23:26:47.867Z,91659.75
2023-03-26T23:29:17.279Z,91664.94
2023-03-26T23:31:43.866Z,91672.16
2023-03-26T23:34:10.921Z,91676.31
2023-03-26T23:36:37.441Z,91678.91
2023-03-26T23:39:04.678Z,91687.47
2023-03-26T23:41:31.324Z,91685.91
2023-03-26T23:43:57.737Z,91688.72
2023-03-26T23:46:30.656Z,91692.22
2023-03-26T23:48:59.742Z,91695.59
2023-03-26T23:51:26.544Z,91696.63
2023-03-26T23:53:53.683Z,91703.16
2023-03-26T23:56:20.180Z,91711.47
2023-03-26T23:58:47.702Z,91715.50
